sensor_id;sensor_type;location;lat;lon;timestamp;P1;durP1;ratioP1;P2;durP2;ratioP2
80578;SDS011;69939;52.402;6.608;2024-02-26T00:01:34;4.55;;;2.63;;
80578;SDS011;69939;52.402;6.608;2024-02-26T00:04:10;4.78;;;2.90;;
80578;SDS011;69939;52.402;6.608;2024-02-26T00:06:40;4.82;;;2.35;;
80578;SDS011;69939;52.402;6.608;2024-02-26T00:09:10;4.88;;;2.70;;
80578;SDS011;69939;52.402;6.608;2024-02-26T00:11:41;1.90;;;1.55;;
80578;SDS011;69939;52.402;6.608;2024-02-26T00:14:10;2.42;;;1.80;;
80578;SDS011;69939;52.402;6.608;2024-02-26T00:16:41;3.55;;;2.35;;
80578;SDS011;69939;52.402;6.608;2024-02-26T00:19:13;4.47;;;3.05;;
80578;SDS011;69939;52.402;6.608;2024-02-26T00:21:42;4.65;;;3.17;;
80578;SDS011;69939;52.402;6.608;2024-02-26T00:24:13;4.60;;;2.35;;
80578;SDS011;69939;52.402;6.608;2024-02-26T00:26:43;4.57;;;2.90;;
80578;SDS011;69939;52.402;6.608;2024-02-26T00:29:18;5.60;;;3.35;;
80578;SDS011;69939;52.402;6.608;2024-02-26T00:31:47;3.97;;;2.80;;
80578;SDS011;69939;52.402;6.608;2024-02-26T00:34:20;4.25;;;3.17;;
80578;SDS011;69939;52.402;6.608;2024-02-26T00:36:49;2.10;;;1.65;;
80578;SDS011;69939;52.402;6.608;2024-02-26T00:39:18;4.28;;;3.05;;
80578;SDS011;69939;52.402;6.608;2024-02-26T00:41:48;3.67;;;1.98;;
80578;SDS011;69939;52.402;6.608;2024-02-26T00:44:19;5.00;;;3.25;;
80578;SDS011;69939;52.402;6.608;2024-02-26T00:49:20;7.43;;;2.42;;
80578;SDS011;69939;52.402;6.608;2024-02-26T00:51:50;2.75;;;1.75;;
80578;SDS011;69939;52.402;6.608;2024-02-26T00:54:19;2.03;;;1.63;;
80578;SDS011;69939;52.402;6.608;2024-02-26T00:56:49;3.72;;;1.88;;
80578;SDS011;69939;52.402;6.608;2024-02-26T00:59:19;4.47;;;2.28;;
80578;SDS011;69939;52.402;6.608;2024-02-26T01:01:48;2.65;;;1.85;;
80578;SDS011;69939;52.402;6.608;2024-02-26T01:04:20;2.70;;;1.92;;
80578;SDS011;69939;52.402;6.608;2024-02-26T01:06:49;4.32;;;2.70;;
80578;SDS011;69939;52.402;6.608;2024-02-26T01:09:24;6.57;;;3.47;;
80578;SDS011;69939;52.402;6.608;2024-02-26T01:12:01;5.03;;;2.97;;
80578;SDS011;69939;52.402;6.608;2024-02-26T01:14:33;6.63;;;3.70;;
80578;SDS011;69939;52.402;6.608;2024-02-26T01:17:04;8.23;;;3.97;;
80578;SDS011;69939;52.402;6.608;2024-02-26T01:19:40;5.80;;;2.47;;
80578;SDS011;69939;52.402;6.608;2024-02-26T01:22:09;3.42;;;2.58;;
80578;SDS011;69939;52.402;6.608;2024-02-26T01:24:39;4.30;;;2.13;;
80578;SDS011;69939;52.402;6.608;2024-02-26T01:27:08;6.63;;;3.38;;
80578;SDS011;69939;52.402;6.608;2024-02-26T01:29:39;5.03;;;2.80;;
80578;SDS011;69939;52.402;6.608;2024-02-26T01:32:09;3.03;;;1.95;;
80578;SDS011;69939;52.402;6.608;2024-02-26T01:34:42;8.45;;;4.22;;
80578;SDS011;69939;52.402;6.608;2024-02-26T01:37:12;5.35;;;2.58;;
80578;SDS011;69939;52.402;6.608;2024-02-26T01:39:43;6.70;;;2.55;;
80578;SDS011;69939;52.402;6.608;2024-02-26T01:42:19;5.13;;;2.20;;
80578;SDS011;69939;52.402;6.608;2024-02-26T01:44:48;5.65;;;2.72;;
80578;SDS011;69939;52.402;6.608;2024-02-26T01:47:23;5.05;;;2.88;;
80578;SDS011;69939;52.402;6.608;2024-02-26T01:49:56;6.30;;;4.00;;
80578;SDS011;69939;52.402;6.608;2024-02-26T01:52:26;4.53;;;2.92;;
80578;SDS011;69939;52.402;6.608;2024-02-26T01:54:55;3.95;;;2.65;;
80578;SDS011;69939;52.402;6.608;2024-02-26T01:57:26;6.30;;;4.18;;
80578;SDS011;69939;52.402;6.608;2024-02-26T01:59:56;7.65;;;4.80;;
80578;SDS011;69939;52.402;6.608;2024-02-26T02:02:29;3.75;;;2.35;;
80578;SDS011;69939;52.402;6.608;2024-02-26T02:04:59;4.60;;;2.30;;
80578;SDS011;69939;52.402;6.608;2024-02-26T02:07:29;8.95;;;3.97;;
80578;SDS011;69939;52.402;6.608;2024-02-26T02:10:00;5.90;;;2.45;;
80578;SDS011;69939;52.402;6.608;2024-02-26T02:12:29;4.55;;;3.03;;
80578;SDS011;69939;52.402;6.608;2024-02-26T02:15:01;3.70;;;2.63;;
80578;SDS011;69939;52.402;6.608;2024-02-26T02:17:34;8.23;;;5.18;;
80578;SDS011;69939;52.402;6.608;2024-02-26T02:20:06;6.55;;;3.78;;
80578;SDS011;69939;52.402;6.608;2024-02-26T02:22:43;8.98;;;4.20;;
80578;SDS011;69939;52.402;6.608;2024-02-26T02:25:13;4.63;;;2.42;;
80578;SDS011;69939;52.402;6.608;2024-02-26T02:27:43;2.65;;;1.80;;
80578;SDS011;69939;52.402;6.608;2024-02-26T02:32:42;9.82;;;6.20;;
80578;SDS011;69939;52.402;6.608;2024-02-26T02:35:13;3.95;;;2.25;;
80578;SDS011;69939;52.402;6.608;2024-02-26T02:40:15;4.22;;;2.75;;
80578;SDS011;69939;52.402;6.608;2024-02-26T02:45:14;3.72;;;2.38;;
80578;SDS011;69939;52.402;6.608;2024-02-26T02:47:43;4.13;;;3.10;;
80578;SDS011;69939;52.402;6.608;2024-02-26T02:50:13;4.72;;;2.40;;
80578;SDS011;69939;52.402;6.608;2024-02-26T02:55:16;5.35;;;3.63;;
80578;SDS011;69939;52.402;6.608;2024-02-26T02:57:45;5.55;;;2.92;;
80578;SDS011;69939;52.402;6.608;2024-02-26T03:00:16;3.53;;;2.40;;
80578;SDS011;69939;52.402;6.608;2024-02-26T03:02:52;12.07;;;3.72;;
80578;SDS011;69939;52.402;6.608;2024-02-26T03:05:21;5.03;;;2.72;;
80578;SDS011;69939;52.402;6.608;2024-02-26T03:07:57;6.20;;;3.58;;
80578;SDS011;69939;52.402;6.608;2024-02-26T03:10:26;7.35;;;5.15;;
80578;SDS011;69939;52.402;6.608;2024-02-26T03:12:57;5.35;;;2.92;;
80578;SDS011;69939;52.402;6.608;2024-02-26T03:15:30;4.15;;;3.40;;
80578;SDS011;69939;52.402;6.608;2024-02-26T03:18:00;8.90;;;5.28;;
80578;SDS011;69939;52.402;6.608;2024-02-26T03:20:30;6.43;;;3.88;;
80578;SDS011;69939;52.402;6.608;2024-02-26T03:23:06;4.43;;;2.88;;
80578;SDS011;69939;52.402;6.608;2024-02-26T03:25:41;4.15;;;2.03;;
80578;SDS011;69939;52.402;6.608;2024-02-26T03:28:13;5.00;;;2.65;;
80578;SDS011;69939;52.402;6.608;2024-02-26T03:30:42;4.53;;;3.38;;
80578;SDS011;69939;52.402;6.608;2024-02-26T03:33:12;4.18;;;3.78;;
80578;SDS011;69939;52.402;6.608;2024-02-26T03:38:14;5.57;;;3.65;;
80578;SDS011;69939;52.402;6.608;2024-02-26T03:40:43;5.43;;;3.70;;
80578;SDS011;69939;52.402;6.608;2024-02-26T03:45:42;7.68;;;4.63;;
80578;SDS011;69939;52.402;6.608;2024-02-26T03:48:12;4.55;;;3.03;;
80578;SDS011;69939;52.402;6.608;2024-02-26T03:53:19;5.97;;;3.55;;
80578;SDS011;69939;52.402;6.608;2024-02-26T03:55:48;4.32;;;2.80;;
80578;SDS011;69939;52.402;6.608;2024-02-26T03:58:19;5.68;;;2.78;;
80578;SDS011;69939;52.402;6.608;2024-02-26T04:00:49;4.10;;;2.53;;
80578;SDS011;69939;52.402;6.608;2024-02-26T04:05:48;5.63;;;2.80;;
80578;SDS011;69939;52.402;6.608;2024-02-26T04:10:49;6.75;;;4.38;;
80578;SDS011;69939;52.402;6.608;2024-02-26T04:15:50;8.60;;;4.35;;
80578;SDS011;69939;52.402;6.608;2024-02-26T04:18:19;4.07;;;1.90;;
80578;SDS011;69939;52.402;6.608;2024-02-26T04:20:49;5.57;;;2.28;;
80578;SDS011;69939;52.402;6.608;2024-02-26T04:25:50;4.68;;;3.22;;
80578;SDS011;69939;52.402;6.608;2024-02-26T04:28:20;8.27;;;4.82;;
80578;SDS011;69939;52.402;6.608;2024-02-26T04:30:50;6.75;;;3.10;;
80578;SDS011;69939;52.402;6.608;2024-02-26T04:33:29;3.80;;;2.88;;
80578;SDS011;69939;52.402;6.608;2024-02-26T04:36:03;3.47;;;2.88;;
80578;SDS011;69939;52.402;6.608;2024-02-26T04:38:36;9.48;;;5.13;;
80578;SDS011;69939;52.402;6.608;2024-02-26T04:41:11;2.95;;;2.10;;
80578;SDS011;69939;52.402;6.608;2024-02-26T04:43:40;6.45;;;3.97;;
80578;SDS011;69939;52.402;6.608;2024-02-26T04:46:10;6.45;;;3.75;;
80578;SDS011;69939;52.402;6.608;2024-02-26T04:48:39;6.40;;;3.92;;
80578;SDS011;69939;52.402;6.608;2024-02-26T04:51:11;2.65;;;2.38;;
80578;SDS011;69939;52.402;6.608;2024-02-26T04:53:40;6.65;;;5.43;;
80578;SDS011;69939;52.402;6.608;2024-02-26T04:56:12;5.72;;;3.55;;
80578;SDS011;69939;52.402;6.608;2024-02-26T04:58:42;6.13;;;3.75;;
80578;SDS011;69939;52.402;6.608;2024-02-26T05:01:17;3.28;;;2.40;;
80578;SDS011;69939;52.402;6.608;2024-02-26T05:03:47;9.88;;;6.65;;
80578;SDS011;69939;52.402;6.608;2024-02-26T05:06:18;6.32;;;4.00;;
80578;SDS011;69939;52.402;6.608;2024-02-26T05:08:48;6.35;;;3.53;;
80578;SDS011;69939;52.402;6.608;2024-02-26T05:11:17;11.85;;;6.43;;
80578;SDS011;69939;52.402;6.608;2024-02-26T05:13:47;6.50;;;3.92;;
80578;SDS011;69939;52.402;6.608;2024-02-26T05:16:20;5.20;;;3.45;;
80578;SDS011;69939;52.402;6.608;2024-02-26T05:18:49;9.70;;;5.55;;
80578;SDS011;69939;52.402;6.608;2024-02-26T05:21:19;6.95;;;3.88;;
80578;SDS011;69939;52.402;6.608;2024-02-26T05:23:48;10.00;;;5.50;;
80578;SDS011;69939;52.402;6.608;2024-02-26T05:26:23;5.90;;;2.90;;
80578;SDS011;69939;52.402;6.608;2024-02-26T05:28:52;9.27;;;4.88;;
80578;SDS011;69939;52.402;6.608;2024-02-26T05:31:27;4.72;;;2.78;;
80578;SDS011;69939;52.402;6.608;2024-02-26T05:33:57;8.38;;;5.50;;
80578;SDS011;69939;52.402;6.608;2024-02-26T05:36:28;5.68;;;3.35;;
80578;SDS011;69939;52.402;6.608;2024-02-26T05:38:58;6.82;;;3.38;;
80578;SDS011;69939;52.402;6.608;2024-02-26T05:41:29;14.00;;;6.82;;
80578;SDS011;69939;52.402;6.608;2024-02-26T05:43:59;12.90;;;7.07;;
80578;SDS011;69939;52.402;6.608;2024-02-26T05:46:31;11.10;;;5.15;;
80578;SDS011;69939;52.402;6.608;2024-02-26T05:49:03;5.28;;;2.63;;
80578;SDS011;69939;52.402;6.608;2024-02-26T05:51:32;12.88;;;7.57;;
80578;SDS011;69939;52.402;6.608;2024-02-26T05:54:03;13.57;;;5.55;;
80578;SDS011;69939;52.402;6.608;2024-02-26T05:56:35;12.38;;;5.97;;
80578;SDS011;69939;52.402;6.608;2024-02-26T05:59:13;10.80;;;5.10;;
80578;SDS011;69939;52.402;6.608;2024-02-26T06:01:45;6.50;;;3.50;;
80578;SDS011;69939;52.402;6.608;2024-02-26T06:04:20;5.90;;;3.47;;
80578;SDS011;69939;52.402;6.608;2024-02-26T06:06:50;4.90;;;2.80;;
80578;SDS011;69939;52.402;6.608;2024-02-26T06:09:20;8.35;;;5.82;;
80578;SDS011;69939;52.402;6.608;2024-02-26T06:11:52;6.70;;;4.38;;
80578;SDS011;69939;52.402;6.608;2024-02-26T06:14:21;9.35;;;4.75;;
80578;SDS011;69939;52.402;6.608;2024-02-26T06:16:51;10.02;;;6.55;;
80578;SDS011;69939;52.402;6.608;2024-02-26T06:19:23;11.02;;;5.05;;
80578;SDS011;69939;52.402;6.608;2024-02-26T06:21:54;8.32;;;4.53;;
80578;SDS011;69939;52.402;6.608;2024-02-26T06:24:29;6.93;;;4.32;;
80578;SDS011;69939;52.402;6.608;2024-02-26T06:26:59;14.65;;;5.43;;
80578;SDS011;69939;52.402;6.608;2024-02-26T06:29:28;13.77;;;7.75;;
80578;SDS011;69939;52.402;6.608;2024-02-26T06:31:57;13.88;;;7.32;;
80578;SDS011;69939;52.402;6.608;2024-02-26T06:34:27;6.60;;;4.18;;
80578;SDS011;69939;52.402;6.608;2024-02-26T06:36:56;12.88;;;6.90;;
80578;SDS011;69939;52.402;6.608;2024-02-26T06:39:25;13.32;;;7.72;;
80578;SDS011;69939;52.402;6.608;2024-02-26T06:41:58;9.55;;;5.78;;
80578;SDS011;69939;52.402;6.608;2024-02-26T06:44:28;14.30;;;6.70;;
80578;SDS011;69939;52.402;6.608;2024-02-26T06:46:58;10.20;;;5.47;;
80578;SDS011;69939;52.402;6.608;2024-02-26T06:49:28;17.20;;;7.45;;
80578;SDS011;69939;52.402;6.608;2024-02-26T06:51:58;8.18;;;4.18;;
80578;SDS011;69939;52.402;6.608;2024-02-26T06:54:30;13.13;;;6.00;;
80578;SDS011;69939;52.402;6.608;2024-02-26T06:56:59;19.88;;;10.90;;
80578;SDS011;69939;52.402;6.608;2024-02-26T07:01:58;11.32;;;5.80;;
80578;SDS011;69939;52.402;6.608;2024-02-26T07:04:27;12.95;;;6.55;;
80578;SDS011;69939;52.402;6.608;2024-02-26T07:06:59;18.58;;;8.40;;
80578;SDS011;69939;52.402;6.608;2024-02-26T07:09:34;18.15;;;9.60;;
80578;SDS011;69939;52.402;6.608;2024-02-26T07:12:03;19.50;;;7.55;;
80578;SDS011;69939;52.402;6.608;2024-02-26T07:14:33;11.38;;;5.68;;
80578;SDS011;69939;52.402;6.608;2024-02-26T07:17:03;15.25;;;8.38;;
80578;SDS011;69939;52.402;6.608;2024-02-26T07:19:32;17.90;;;9.85;;
80578;SDS011;69939;52.402;6.608;2024-02-26T07:22:02;25.13;;;13.35;;
80578;SDS011;69939;52.402;6.608;2024-02-26T07:24:34;19.80;;;11.13;;
80578;SDS011;69939;52.402;6.608;2024-02-26T07:27:04;13.52;;;6.93;;
80578;SDS011;69939;52.402;6.608;2024-02-26T07:29:33;14.25;;;7.55;;
80578;SDS011;69939;52.402;6.608;2024-02-26T07:32:03;12.63;;;6.70;;
80578;SDS011;69939;52.402;6.608;2024-02-26T07:34:35;17.48;;;8.52;;
80578;SDS011;69939;52.402;6.608;2024-02-26T07:37:06;16.52;;;8.95;;
80578;SDS011;69939;52.402;6.608;2024-02-26T07:39:39;20.48;;;9.82;;
80578;SDS011;69939;52.402;6.608;2024-02-26T07:42:15;15.80;;;7.53;;
80578;SDS011;69939;52.402;6.608;2024-02-26T07:44:44;11.63;;;7.18;;
80578;SDS011;69939;52.402;6.608;2024-02-26T07:47:14;23.58;;;12.88;;
80578;SDS011;69939;52.402;6.608;2024-02-26T07:49:43;10.18;;;6.80;;
80578;SDS011;69939;52.402;6.608;2024-02-26T07:52:13;13.98;;;6.90;;
80578;SDS011;69939;52.402;6.608;2024-02-26T07:54:42;11.73;;;6.07;;
80578;SDS011;69939;52.402;6.608;2024-02-26T07:57:11;18.23;;;10.35;;
80578;SDS011;69939;52.402;6.608;2024-02-26T07:59:44;13.13;;;7.07;;
80578;SDS011;69939;52.402;6.608;2024-02-26T08:02:14;16.88;;;7.53;;
80578;SDS011;69939;52.402;6.608;2024-02-26T08:04:44;15.05;;;7.63;;
80578;SDS011;69939;52.402;6.608;2024-02-26T08:07:13;12.38;;;6.38;;
80578;SDS011;69939;52.402;6.608;2024-02-26T08:09:43;11.20;;;5.57;;
80578;SDS011;69939;52.402;6.608;2024-02-26T08:12:15;13.50;;;6.53;;
80578;SDS011;69939;52.402;6.608;2024-02-26T08:14:44;8.35;;;5.00;;
80578;SDS011;69939;52.402;6.608;2024-02-26T08:17:13;10.32;;;5.57;;
80578;SDS011;69939;52.402;6.608;2024-02-26T08:19:49;10.38;;;4.97;;
80578;SDS011;69939;52.402;6.608;2024-02-26T08:22:18;21.25;;;10.35;;
80578;SDS011;69939;52.402;6.608;2024-02-26T08:24:47;10.00;;;5.60;;
80578;SDS011;69939;52.402;6.608;2024-02-26T08:27:17;7.35;;;3.55;;
80578;SDS011;69939;52.402;6.608;2024-02-26T08:29:46;15.70;;;8.43;;
80578;SDS011;69939;52.402;6.608;2024-02-26T08:32:16;16.67;;;8.23;;
80578;SDS011;69939;52.402;6.608;2024-02-26T08:37:18;15.07;;;6.60;;
80578;SDS011;69939;52.402;6.608;2024-02-26T08:39:48;16.02;;;10.15;;
80578;SDS011;69939;52.402;6.608;2024-02-26T08:42:17;15.80;;;9.38;;
80578;SDS011;69939;52.402;6.608;2024-02-26T08:44:46;14.20;;;6.47;;
80578;SDS011;69939;52.402;6.608;2024-02-26T08:49:45;7.85;;;4.22;;
80578;SDS011;69939;52.402;6.608;2024-02-26T08:52:17;15.88;;;8.02;;
80578;SDS011;69939;52.402;6.608;2024-02-26T08:54:44;13.20;;;6.78;;
80578;SDS011;69939;52.402;6.608;2024-02-26T08:57:13;9.38;;;5.18;;
80578;SDS011;69939;52.402;6.608;2024-02-26T08:59:43;11.30;;;4.93;;
80578;SDS011;69939;52.402;6.608;2024-02-26T09:02:12;8.38;;;4.60;;
80578;SDS011;69939;52.402;6.608;2024-02-26T09:07:11;10.80;;;5.65;;
80578;SDS011;69939;52.402;6.608;2024-02-26T09:09:43;10.10;;;5.32;;
80578;SDS011;69939;52.402;6.608;2024-02-26T09:12:12;8.57;;;4.25;;
80578;SDS011;69939;52.402;6.608;2024-02-26T09:14:42;7.10;;;4.32;;
80578;SDS011;69939;52.402;6.608;2024-02-26T09:17:11;14.07;;;7.35;;
80578;SDS011;69939;52.402;6.608;2024-02-26T09:22:10;11.07;;;5.97;;
80578;SDS011;69939;52.402;6.608;2024-02-26T09:24:39;13.13;;;8.02;;
80578;SDS011;69939;52.402;6.608;2024-02-26T09:27:12;11.32;;;6.50;;
80578;SDS011;69939;52.402;6.608;2024-02-26T09:29:43;14.80;;;8.43;;
80578;SDS011;69939;52.402;6.608;2024-02-26T09:32:13;13.15;;;7.40;;
80578;SDS011;69939;52.402;6.608;2024-02-26T09:34:43;8.40;;;5.18;;
80578;SDS011;69939;52.402;6.608;2024-02-26T09:37:15;13.02;;;6.70;;
80578;SDS011;69939;52.402;6.608;2024-02-26T09:39:47;14.10;;;7.07;;
80578;SDS011;69939;52.402;6.608;2024-02-26T09:42:17;9.73;;;4.82;;
80578;SDS011;69939;52.402;6.608;2024-02-26T09:44:48;12.73;;;7.03;;
80578;SDS011;69939;52.402;6.608;2024-02-26T09:47:23;11.65;;;5.78;;
80578;SDS011;69939;52.402;6.608;2024-02-26T09:49:55;12.13;;;7.30;;
80578;SDS011;69939;52.402;6.608;2024-02-26T09:52:27;12.13;;;7.32;;
80578;SDS011;69939;52.402;6.608;2024-02-26T09:55:04;10.73;;;6.00;;
80578;SDS011;69939;52.402;6.608;2024-02-26T09:57:36;12.95;;;8.43;;
80578;SDS011;69939;52.402;6.608;2024-02-26T10:00:06;8.60;;;4.88;;
80578;SDS011;69939;52.402;6.608;2024-02-26T10:02:43;7.10;;;3.92;;
80578;SDS011;69939;52.402;6.608;2024-02-26T10:05:16;7.10;;;4.50;;
80578;SDS011;69939;52.402;6.608;2024-02-26T10:07:46;8.18;;;4.85;;
80578;SDS011;69939;52.402;6.608;2024-02-26T10:12:48;13.85;;;6.05;;
80578;SDS011;69939;52.402;6.608;2024-02-26T10:15:17;10.68;;;5.47;;
80578;SDS011;69939;52.402;6.608;2024-02-26T10:17:47;12.65;;;7.47;;
80578;SDS011;69939;52.402;6.608;2024-02-26T10:22:48;4.40;;;2.05;;
80578;SDS011;69939;52.402;6.608;2024-02-26T10:27:49;8.90;;;4.65;;
80578;SDS011;69939;52.402;6.608;2024-02-26T10:30:25;10.13;;;7.22;;
80578;SDS011;69939;52.402;6.608;2024-02-26T10:32:55;6.45;;;3.45;;
80578;SDS011;69939;52.402;6.608;2024-02-26T10:35:25;8.02;;;5.07;;
80578;SDS011;69939;52.402;6.608;2024-02-26T10:37:56;10.10;;;5.93;;
80578;SDS011;69939;52.402;6.608;2024-02-26T10:40:25;7.93;;;5.05;;
80578;SDS011;69939;52.402;6.608;2024-02-26T10:42:54;8.57;;;4.97;;
80578;SDS011;69939;52.402;6.608;2024-02-26T10:45:29;10.20;;;5.63;;
80578;SDS011;69939;52.402;6.608;2024-02-26T10:48:00;10.60;;;6.32;;
80578;SDS011;69939;52.402;6.608;2024-02-26T10:50:29;12.38;;;8.07;;
80578;SDS011;69939;52.402;6.608;2024-02-26T10:53:01;6.45;;;3.50;;
80578;SDS011;69939;52.402;6.608;2024-02-26T10:55:36;7.85;;;5.03;;
80578;SDS011;69939;52.402;6.608;2024-02-26T10:58:06;9.40;;;5.68;;
80578;SDS011;69939;52.402;6.608;2024-02-26T11:00:41;8.13;;;4.32;;
80578;SDS011;69939;52.402;6.608;2024-02-26T11:03:12;6.90;;;3.50;;
80578;SDS011;69939;52.402;6.608;2024-02-26T11:05:45;6.80;;;4.68;;
80578;SDS011;69939;52.402;6.608;2024-02-26T11:08:17;8.27;;;4.90;;
80578;SDS011;69939;52.402;6.608;2024-02-26T11:10:50;6.57;;;4.20;;
80578;SDS011;69939;52.402;6.608;2024-02-26T11:13:23;9.23;;;2.97;;
80578;SDS011;69939;52.402;6.608;2024-02-26T11:16:02;5.88;;;4.00;;
80578;SDS011;69939;52.402;6.608;2024-02-26T11:18:38;6.70;;;4.38;;
80578;SDS011;69939;52.402;6.608;2024-02-26T11:21:11;7.68;;;4.50;;
80578;SDS011;69939;52.402;6.608;2024-02-26T11:23:44;5.70;;;2.75;;
80578;SDS011;69939;52.402;6.608;2024-02-26T11:26:15;4.78;;;2.88;;
80578;SDS011;69939;52.402;6.608;2024-02-26T11:28:46;8.73;;;5.97;;
80578;SDS011;69939;52.402;6.608;2024-02-26T11:31:17;9.27;;;5.95;;
80578;SDS011;69939;52.402;6.608;2024-02-26T11:33:55;10.30;;;6.63;;
80578;SDS011;69939;52.402;6.608;2024-02-26T11:36:25;7.65;;;4.60;;
80578;SDS011;69939;52.402;6.608;2024-02-26T11:38:55;9.40;;;5.90;;
80578;SDS011;69939;52.402;6.608;2024-02-26T11:41:25;4.88;;;2.85;;
80578;SDS011;69939;52.402;6.608;2024-02-26T11:43:57;7.97;;;5.07;;
80578;SDS011;69939;52.402;6.608;2024-02-26T11:46:31;9.23;;;5.05;;
80578;SDS011;69939;52.402;6.608;2024-02-26T11:52:00;9.80;;;5.70;;
80578;SDS011;69939;52.402;6.608;2024-02-26T11:54:45;6.40;;;4.03;;
80578;SDS011;69939;52.402;6.608;2024-02-26T11:57:22;7.63;;;5.32;;
80578;SDS011;69939;52.402;6.608;2024-02-26T11:59:54;6.50;;;4.05;;
80578;SDS011;69939;52.402;6.608;2024-02-26T12:02:37;7.82;;;5.22;;
80578;SDS011;69939;52.402;6.608;2024-02-26T12:07:42;7.38;;;3.35;;
80578;SDS011;69939;52.402;6.608;2024-02-26T12:10:14;10.65;;;7.07;;
80578;SDS011;69939;52.402;6.608;2024-02-26T12:12:53;6.93;;;3.67;;
80578;SDS011;69939;52.402;6.608;2024-02-26T12:15:36;7.22;;;4.30;;
80578;SDS011;69939;52.402;6.608;2024-02-26T12:18:07;6.57;;;4.40;;
80578;SDS011;69939;52.402;6.608;2024-02-26T12:20:38;4.30;;;3.10;;
80578;SDS011;69939;52.402;6.608;2024-02-26T12:23:09;4.63;;;2.08;;
80578;SDS011;69939;52.402;6.608;2024-02-26T12:25:44;7.53;;;5.07;;
80578;SDS011;69939;52.402;6.608;2024-02-26T12:28:14;4.88;;;3.58;;
80578;SDS011;69939;52.402;6.608;2024-02-26T12:30:46;8.00;;;4.93;;
80578;SDS011;69939;52.402;6.608;2024-02-26T12:33:16;4.07;;;2.78;;
80578;SDS011;69939;52.402;6.608;2024-02-26T12:35:45;5.95;;;2.65;;
80578;SDS011;69939;52.402;6.608;2024-02-26T12:38:15;7.85;;;4.85;;
80578;SDS011;69939;52.402;6.608;2024-02-26T12:40:45;6.63;;;4.10;;
80578;SDS011;69939;52.402;6.608;2024-02-26T12:43:17;5.80;;;3.90;;
80578;SDS011;69939;52.402;6.608;2024-02-26T12:45:49;4.03;;;3.03;;
80578;SDS011;69939;52.402;6.608;2024-02-26T12:48:18;8.32;;;5.93;;
80578;SDS011;69939;52.402;6.608;2024-02-26T12:50:48;4.72;;;2.35;;
80578;SDS011;69939;52.402;6.608;2024-02-26T12:53:17;6.80;;;4.47;;
80578;SDS011;69939;52.402;6.608;2024-02-26T12:55:47;5.60;;;2.60;;
80578;SDS011;69939;52.402;6.608;2024-02-26T12:58:18;4.15;;;2.13;;
80578;SDS011;69939;52.402;6.608;2024-02-26T13:00:53;8.50;;;5.43;;
80578;SDS011;69939;52.402;6.608;2024-02-26T13:03:23;6.65;;;4.70;;
80578;SDS011;69939;52.402;6.608;2024-02-26T13:05:53;3.67;;;2.35;;
80578;SDS011;69939;52.402;6.608;2024-02-26T13:08:23;7.10;;;5.25;;
80578;SDS011;69939;52.402;6.608;2024-02-26T13:10:53;3.05;;;2.13;;
80578;SDS011;69939;52.402;6.608;2024-02-26T13:13:22;5.03;;;2.55;;
80578;SDS011;69939;52.402;6.608;2024-02-26T13:16:03;6.57;;;4.25;;
80578;SDS011;69939;52.402;6.608;2024-02-26T13:18:34;4.38;;;2.45;;
80578;SDS011;69939;52.402;6.608;2024-02-26T13:21:07;7.65;;;3.85;;
80578;SDS011;69939;52.402;6.608;2024-02-26T13:23:42;7.13;;;4.13;;
80578;SDS011;69939;52.402;6.608;2024-02-26T13:26:16;8.35;;;5.88;;
80578;SDS011;69939;52.402;6.608;2024-02-26T13:28:58;7.15;;;3.78;;
80578;SDS011;69939;52.402;6.608;2024-02-26T13:31:32;8.90;;;5.60;;
80578;SDS011;69939;52.402;6.608;2024-02-26T13:34:08;5.47;;;2.88;;
80578;SDS011;69939;52.402;6.608;2024-02-26T13:36:38;7.05;;;3.90;;
80578;SDS011;69939;52.402;6.608;2024-02-26T13:39:20;3.10;;;1.95;;
80578;SDS011;69939;52.402;6.608;2024-02-26T13:41:52;9.98;;;6.07;;
80578;SDS011;69939;52.402;6.608;2024-02-26T13:44:28;6.10;;;3.53;;
80578;SDS011;69939;52.402;6.608;2024-02-26T13:46:59;4.20;;;2.67;;
80578;SDS011;69939;52.402;6.608;2024-02-26T13:49:28;8.95;;;4.30;;
80578;SDS011;69939;52.402;6.608;2024-02-26T13:51:57;9.48;;;4.90;;
80578;SDS011;69939;52.402;6.608;2024-02-26T13:54:27;8.25;;;4.65;;
80578;SDS011;69939;52.402;6.608;2024-02-26T13:56:56;7.22;;;4.45;;
80578;SDS011;69939;52.402;6.608;2024-02-26T13:59:28;9.15;;;5.57;;
80578;SDS011;69939;52.402;6.608;2024-02-26T14:01:58;9.50;;;5.50;;
80578;SDS011;69939;52.402;6.608;2024-02-26T14:04:27;8.55;;;4.43;;
80578;SDS011;69939;52.402;6.608;2024-02-26T14:09:26;7.40;;;3.40;;
80578;SDS011;69939;52.402;6.608;2024-02-26T14:12:07;2.67;;;2.10;;
80578;SDS011;69939;52.402;6.608;2024-02-26T14:14:37;8.50;;;4.82;;
80578;SDS011;69939;52.402;6.608;2024-02-26T14:17:08;7.20;;;3.75;;
80578;SDS011;69939;52.402;6.608;2024-02-26T14:19:39;8.68;;;3.22;;
80578;SDS011;69939;52.402;6.608;2024-02-26T14:22:10;5.60;;;3.00;;
80578;SDS011;69939;52.402;6.608;2024-02-26T14:24:40;8.55;;;6.30;;
80578;SDS011;69939;52.402;6.608;2024-02-26T14:27:13;7.45;;;4.15;;
80578;SDS011;69939;52.402;6.608;2024-02-26T14:29:48;6.78;;;3.88;;
80578;SDS011;69939;52.402;6.608;2024-02-26T14:32:18;7.85;;;5.35;;
80578;SDS011;69939;52.402;6.608;2024-02-26T14:34:48;7.10;;;4.40;;
80578;SDS011;69939;52.402;6.608;2024-02-26T14:37:17;5.22;;;3.17;;
80578;SDS011;69939;52.402;6.608;2024-02-26T14:42:17;4.70;;;3.15;;
80578;SDS011;69939;52.402;6.608;2024-02-26T14:47:18;7.15;;;4.72;;
80578;SDS011;69939;52.402;6.608;2024-02-26T14:49:47;8.13;;;5.03;;
80578;SDS011;69939;52.402;6.608;2024-02-26T14:52:17;5.30;;;3.33;;
80578;SDS011;69939;52.402;6.608;2024-02-26T14:57:16;7.15;;;4.20;;
80578;SDS011;69939;52.402;6.608;2024-02-26T14:59:49;6.20;;;3.83;;
80578;SDS011;69939;52.402;6.608;2024-02-26T15:02:19;5.45;;;3.50;;
80578;SDS011;69939;52.402;6.608;2024-02-26T15:07:18;4.13;;;3.22;;
80578;SDS011;69939;52.402;6.608;2024-02-26T15:09:48;3.95;;;2.63;;
80578;SDS011;69939;52.402;6.608;2024-02-26T15:12:21;6.65;;;5.13;;
80578;SDS011;69939;52.402;6.608;2024-02-26T15:14:54;4.82;;;2.53;;
80578;SDS011;69939;52.402;6.608;2024-02-26T15:17:23;8.70;;;5.35;;
80578;SDS011;69939;52.402;6.608;2024-02-26T15:19:54;6.07;;;3.38;;
80578;SDS011;69939;52.402;6.608;2024-02-26T15:22:24;6.78;;;3.85;;
80578;SDS011;69939;52.402;6.608;2024-02-26T15:27:23;5.20;;;4.00;;
80578;SDS011;69939;52.402;6.608;2024-02-26T15:32:26;10.25;;;6.95;;
80578;SDS011;69939;52.402;6.608;2024-02-26T15:34:57;4.47;;;3.50;;
80578;SDS011;69939;52.402;6.608;2024-02-26T15:37:26;10.10;;;6.47;;
80578;SDS011;69939;52.402;6.608;2024-02-26T15:39:55;6.32;;;3.67;;
80578;SDS011;69939;52.402;6.608;2024-02-26T15:42:30;6.82;;;4.40;;
80578;SDS011;69939;52.402;6.608;2024-02-26T15:45:00;7.65;;;4.65;;
80578;SDS011;69939;52.402;6.608;2024-02-26T15:49:59;5.43;;;3.00;;
80578;SDS011;69939;52.402;6.608;2024-02-26T15:52:28;8.20;;;4.57;;
80578;SDS011;69939;52.402;6.608;2024-02-26T15:55:04;6.50;;;4.28;;
80578;SDS011;69939;52.402;6.608;2024-02-26T15:57:34;5.07;;;3.42;;
80578;SDS011;69939;52.402;6.608;2024-02-26T16:00:06;9.65;;;6.57;;
80578;SDS011;69939;52.402;6.608;2024-02-26T16:05:08;8.32;;;4.45;;
80578;SDS011;69939;52.402;6.608;2024-02-26T16:07:45;8.27;;;4.20;;
80578;SDS011;69939;52.402;6.608;2024-02-26T16:10:21;9.70;;;6.85;;
80578;SDS011;69939;52.402;6.608;2024-02-26T16:12:53;11.73;;;8.93;;
80578;SDS011;69939;52.402;6.608;2024-02-26T16:15:30;7.32;;;4.38;;
80578;SDS011;69939;52.402;6.608;2024-02-26T16:18:01;7.82;;;4.82;;
80578;SDS011;69939;52.402;6.608;2024-02-26T16:20:31;9.38;;;5.97;;
80578;SDS011;69939;52.402;6.608;2024-02-26T16:23:03;7.53;;;3.92;;
80578;SDS011;69939;52.402;6.608;2024-02-26T16:25:33;7.93;;;3.55;;